createdAt,value
2022-10-06T10:24:53.052Z,69.1
2022-10-06T10:30:20.997Z,69.4
2022-10-06T10:36:08.661Z,69.8
2022-10-06T10:41:45.687Z,69.4
2022-10-06T10:47:29.334Z,69.2
2022-10-06T10:52:50.846Z,69.2
2022-10-06T10:58:30.900Z,69.6
2022-10-06T11:04:09.567Z,70.3
2022-10-06T11:09:32.614Z,69.7
2022-10-06T11:15:17.060Z,69.1
2022-10-06T11:20:40.715Z,68.3
2022-10-06T11:26:06.710Z,66.6
2022-10-06T11:31:29.822Z,67.1
2022-10-06T11:36:53.052Z,67.6
2022-10-06T11:42:21.483Z,65.3
2022-10-06T11:47:52.896Z,69.8
2022-10-06T11:53:35.714Z,77.9
2022-10-06T11:59:20.149Z,66.4
2022-10-06T12:04:43.648Z,65.8
2022-10-06T12:11:04.178Z,71.6
2022-10-06T12:19:54.661Z,71.1
2022-10-06T12:25:17.783Z,62.8
2022-10-06T12:30:40.957Z,66.1
2022-10-06T12:36:07.306Z,66.9
2022-10-06T12:41:37.696Z,67
2022-10-06T12:47:01.557Z,68.4
2022-10-06T12:52:27.430Z,67.8
2022-10-06T12:57:49.696Z,67.5
2022-10-06T13:03:28.748Z,68
2022-10-06T13:09:10.476Z,67.7
2022-10-06T13:14:47.685Z,66.1
2022-10-06T13:20:14.669Z,64.1
2022-10-06T13:25:36.562Z,62.4
2022-10-06T13:31:15.236Z,61.4
2022-10-06T13:36:58.298Z,60.4
2022-10-06T13:42:47.462Z,59.3
2022-10-06T13:48:27.570Z,57.8
2022-10-06T13:54:06.011Z,56.2
2022-10-06T13:59:46.967Z,54.5
2022-10-06T14:05:30.517Z,52.8
2022-10-06T14:11:09.240Z,51.3
2022-10-06T14:16:51.371Z,49.4
2022-10-06T14:22:14.484Z,47.9
2022-10-06T14:27:52.709Z,46.4
2022-10-06T14:33:33.490Z,45.3
2022-10-06T19:54:19.819Z,7.8
2022-10-06T19:59:42.971Z,7.6
2022-10-06T20:05:20.264Z,7.4
2022-10-06T20:10:57.302Z,7.3
2022-10-06T20:16:24.321Z,7.2
2022-10-06T20:21:46.892Z,7
2022-10-06T20:27:09.193Z,6.9
2022-10-06T20:32:48.533Z,6.8
2022-10-06T20:37:54.503Z,6.7
2022-10-06T20:43:16.113Z,6.6
2022-10-06T20:48:39.321Z,6.4
2022-10-06T20:54:19.618Z,6.3
2022-10-06T20:59:56.643Z,6.3
2022-10-06T21:05:35.080Z,6.1
2022-10-06T21:11:16.921Z,6.1
2022-10-06T21:16:55.085Z,5.9
2022-10-06T21:22:33.122Z,5.8
2022-10-06T21:28:10.370Z,5.8
2022-10-06T21:33:48.586Z,5.7
2022-10-06T21:39:27.301Z,5.6
2022-10-06T21:45:07.100Z,5.6
2022-10-06T21:51:15.722Z,5.4
2022-10-06T21:56:38.624Z,5.3
2022-10-06T22:02:16.514Z,5.3
2022-10-06T22:07:54.383Z,5.3
2022-10-06T22:13:32.236Z,5.2
2022-10-06T22:19:10.037Z,5.1
2022-10-06T22:24:49.892Z,5.1
2022-10-06T22:30:12.813Z,5.1
2022-10-06T22:35:54.304Z,5.1
2022-10-06T22:41:36.225Z,5.1
2022-10-06T22:46:59.072Z,5
2022-10-06T22:52:20.809Z,4.9
2022-10-06T22:57:42.539Z,4.9
2022-10-06T23:03:05.445Z,4.8
2022-10-06T23:08:11.324Z,4.8
2022-10-06T23:13:23.564Z,4.8
2022-10-06T23:18:30.692Z,4.8
2022-10-06T23:23:36.279Z,4.8
2022-10-06T23:28:42.952Z,4.9
2022-10-06T23:33:49.919Z,4.9
2022-10-06T23:39:10.431Z,4.9
2022-10-06T23:44:31.375Z,4.9
2022-10-06T23:49:54.147Z,4.9
2022-10-06T23:55:15.207Z,5
